Aviation Digital Data Service (ADDS)

Output produced by METARs form (1346 UTC 26 May 2018)
found at http://www.aviationweather.gov/adds/metars/
 
TISX 261143Z 2612/2712 09010KT P6SM VCSH SCT025 SCT040 
     FM261400 11014KT P6SM SCT035 
     FM262300 07010KT P6SM SCT025
       
TIST 261143Z 2612/2712 09010KT P6SM VCSH SCT025 SCT040 
     FM261400 12014KT P6SM SCT035 
     FM262300 09010KT P6SM SCT025